Time;durP1;ratioP1;P1;durP2;ratioP2;P2;SDS_P1;SDS_P2;PMS_P1;PMS_P2;Temp;Humidity;BMP_temperature;BMP_pressure;BME280_temperature;BME280_humidity;BME280_pressure;Samples;Min_cycle;Max_cycle;Signal;HPM_P1;HPM_P2
2022/08/31 00:05:45;;;;;;;2.40;1.90;;;;;;;15.37;78.25;98770.58;105959;1274;22551;-71
2022/08/31 00:08:13;;;;;;;4.20;2.50;;;;;;;15.32;78.54;98773.48;105998;1274;23041;-70
2022/08/31 00:10:42;;;;;;;3.20;2.20;;;;;;;15.29;78.78;98771.05;105763;1277;23960;-70
2022/08/31 00:13:09;;;;;;;3.40;2.20;;;;;;;15.25;78.97;98774.42;105933;1277;23961;-70
2022/08/31 00:15:36;;;;;;;3.30;2.20;;;;;;;15.22;79.05;98768.48;105862;1277;22812;-70
2022/08/31 00:18:03;;;;;;;4.30;2.20;;;;;;;15.19;79.12;98763.16;105895;1277;22545;-70
2022/08/31 00:20:35;;;;;;;2.50;2.00;;;;;;;15.17;79.34;98765.95;105961;1274;22716;-70
2022/08/31 00:23:08;;;;;;;4.10;2.00;;;;;;;15.13;79.31;98767.42;106032;1274;25308;-70
2022/08/31 00:25:36;;;;;;;2.30;2.00;;;;;;;15.10;79.63;98763.02;106011;1274;25239;-70
2022/08/31 00:28:04;;;;;;;2.70;2.10;;;;;;;15.09;79.60;98764.27;105958;1274;24376;-70
2022/08/31 00:30:31;;;;;;;4.40;2.20;;;;;;;15.07;79.37;98770.13;105969;1274;22545;-70
2022/08/31 00:32:58;;;;;;;3.90;2.20;;;;;;;15.05;79.39;98775.42;105920;1274;22557;-70
2022/08/31 00:35:31;;;;;;;3.20;2.30;;;;;;;15.03;79.37;98764.02;105788;1274;22674;-70
2022/08/31 00:37:59;;;;;;;2.50;2.00;;;;;;;15.01;79.44;98764.94;105904;1274;24384;-71
2022/08/31 00:40:26;;;;;;;4.40;2.00;;;;;;;14.98;79.43;98761.03;105914;1274;23111;-71
2022/08/31 00:42:54;;;;;;;3.40;1.70;;;;;;;14.94;79.50;98762.38;105973;1274;22739;-70
2022/08/31 00:45:22;;;;;;;3.00;2.20;;;;;;;14.91;79.63;98762.31;105859;1274;22759;-70
2022/08/31 00:47:49;;;;;;;3.80;2.20;;;;;;;14.86;79.85;98762.66;105940;1274;22563;-70
2022/08/31 00:50:18;;;;;;;2.70;1.90;;;;;;;14.84;79.72;98760.23;105876;1274;22564;-71
2022/08/31 00:52:49;;;;;;;3.80;2.20;;;;;;;14.80;79.78;98760.92;105914;1277;22544;-71
2022/08/31 00:55:36;;;;;;;3.30;2.40;;;;;;;14.75;79.94;98763.48;105872;1276;22566;-70
2022/08/31 00:58:07;;;;;;;2.90;1.80;;;;;;;14.71;80.13;98754.52;105904;1277;22538;-71
2022/08/31 01:00:35;;;;;;;3.70;2.20;;;;;;;14.69;80.39;98751.20;105715;1274;22577;-70
2022/08/31 01:03:04;;;;;;;2.90;2.00;;;;;;;14.67;80.26;98751.09;105957;1274;25318;-70
2022/08/31 01:05:31;;;;;;;4.60;2.10;;;;;;;14.64;80.33;98753.38;105847;1274;22621;-70
2022/08/31 01:08:02;;;;;;;2.70;1.80;;;;;;;14.62;80.34;98758.68;105902;1274;25241;-70
2022/08/31 01:10:42;;;;;;;4.50;2.30;;;;;;;14.59;80.51;98760.79;105974;1274;24272;-71
2022/08/31 01:13:11;;;;;;;2.50;1.60;;;;;;;14.54;80.58;98760.63;105989;1277;22548;-71
2022/08/31 01:15:45;;;;;;;6.10;1.90;;;;;;;14.50;80.61;98766.52;105977;1277;22547;-70
2022/08/31 01:18:17;;;;;;;2.90;2.40;;;;;;;14.45;80.65;98764.06;105906;1276;25242;-70
2022/08/31 01:21:42;;;;;;;5.20;2.60;;;;;;;14.42;80.96;98763.28;105940;1277;22839;-70
2022/08/31 01:24:12;;;;;;;2.90;2.20;;;;;;;14.39;81.01;98757.94;105288;1283;24322;-70
2022/08/31 01:26:42;;;;;;;2.80;2.20;;;;;;;14.38;81.16;98756.18;105072;1283;25253;-70
2022/08/31 01:29:09;;;;;;;2.40;1.90;;;;;;;14.35;81.15;98756.22;105009;1283;25423;-70
2022/08/31 01:31:48;;;;;;;3.60;1.90;;;;;;;14.31;81.16;98756.35;105060;1283;22545;-70
2022/08/31 01:34:16;;;;;;;4.00;2.00;;;;;;;14.27;81.41;98759.91;105297;1283;24408;-70
2022/08/31 01:36:46;;;;;;;3.20;2.10;;;;;;;14.23;81.52;98760.83;105245;1283;22535;-71
2022/08/31 01:39:13;;;;;;;4.00;2.10;;;;;;;14.18;81.52;98755.69;105222;1283;22679;-73
2022/08/31 01:41:42;;;;;;;5.30;2.00;;;;;;;14.15;81.70;98753.70;105238;1283;22632;-73
2022/08/31 01:44:15;;;;;;;4.40;2.00;;;;;;;14.12;81.87;98756.73;105021;1283;24601;-70
2022/08/31 01:46:45;;;;;;;3.10;2.10;;;;;;;14.09;82.01;98759.73;105305;1283;24214;-70
2022/08/31 01:49:14;;;;;;;3.70;2.20;;;;;;;14.07;82.24;98756.36;105329;1283;22576;-70
2022/08/31 01:51:42;;;;;;;3.00;1.90;;;;;;;14.03;82.23;98757.06;104994;1283;24266;-71
2022/08/31 01:54:09;;;;;;;4.10;2.30;;;;;;;14.02;82.48;98762.19;104983;1283;22538;-70
2022/08/31 01:56:41;;;;;;;2.60;2.10;;;;;;;14.02;82.58;98759.68;105258;1283;24272;-70
2022/08/31 01:59:14;;;;;;;3.30;1.90;;;;;;;14.01;82.63;98764.48;105704;1277;25258;-71
2022/08/31 02:02:06;;;;;;;3.30;1.90;;;;;;;14.01;83.07;98766.77;105559;1277;22615;-71
2022/08/31 02:04:36;;;;;;;2.40;1.80;;;;;;;14.02;83.08;98764.17;105822;1277;22557;-71
2022/08/31 02:07:03;;;;;;;3.10;1.80;;;;;;;14.03;83.23;98764.66;105741;1277;22528;-70
2022/08/31 02:09:34;;;;;;;3.20;1.90;;;;;;;14.04;83.58;98763.73;105783;1277;22551;-71
2022/08/31 02:12:01;;;;;;;3.60;1.70;;;;;;;14.06;83.70;98765.08;105621;1277;22567;-71
2022/08/31 02:14:28;;;;;;;4.90;2.10;;;;;;;14.07;83.66;98763.42;105811;1277;24819;-71
2022/08/31 02:16:55;;;;;;;2.00;1.80;;;;;;;14.08;83.74;98762.98;105791;1277;24343;-71
2022/08/31 02:19:22;;;;;;;3.80;2.00;;;;;;;14.06;83.77;98765.56;105486;1277;22528;-71
2022/08/31 02:21:48;;;;;;;2.60;2.20;;;;;;;14.06;84.04;98762.61;105796;1277;25464;-71
2022/08/31 02:24:20;;;;;;;3.40;1.90;;;;;;;14.08;84.11;98757.35;105766;1277;24108;-71
2022/08/31 02:26:47;;;;;;;3.60;1.80;;;;;;;14.07;84.27;98755.21;105768;1277;25418;-71
2022/08/31 02:29:14;;;;;;;2.80;2.00;;;;;;;14.08;84.32;98754.18;105611;1277;24322;-71
2022/08/31 02:31:41;;;;;;;2.90;2.40;;;;;;;14.07;84.21;98751.60;105605;1277;25474;-71
2022/08/31 02:34:07;;;;;;;3.70;2.30;;;;;;;14.05;84.28;98749.67;105887;1277;30506;-71
2022/08/31 02:36:35;;;;;;;5.00;2.30;;;;;;;14.02;84.17;98752.33;105844;1277;25370;-71
2022/08/31 02:39:02;;;;;;;4.60;2.60;;;;;;;14.00;84.04;98749.73;105864;1277;22667;-71
2022/08/31 02:41:30;;;;;;;3.90;3.00;;;;;;;13.98;84.18;98751.64;105964;1275;23368;-71
2022/08/31 02:43:57;;;;;;;3.10;2.80;;;;;;;13.96;84.22;98752.27;105877;1277;22549;-71
2022/08/31 02:46:23;;;;;;;5.40;2.90;;;;;;;13.94;84.35;98753.89;105626;1277;22567;-71
2022/08/31 02:49:00;;;;;;;5.30;3.80;;;;;;;13.94;84.36;98754.17;105850;1277;25640;-71
2022/08/31 02:51:27;;;;;;;4.00;2.40;;;;;;;13.93;84.43;98754.77;105599;1277;22557;-71
2022/08/31 02:53:55;;;;;;;2.50;2.30;;;;;;;13.94;84.43;98757.36;105744;1277;25643;-71
2022/08/31 02:56:22;;;;;;;3.70;2.40;;;;;;;13.95;84.49;98755.05;105863;1277;22570;-71
2022/08/31 02:58:53;;;;;;;2.90;2.10;;;;;;;13.95;84.37;98761.53;105907;1277;24323;-71
2022/08/31 03:01:22;;;;;;;2.10;2.00;;;;;;;13.95;84.33;98760.69;105835;1277;24306;-71
2022/08/31 03:03:49;;;;;;;4.90;2.60;;;;;;;13.94;84.22;98759.64;105692;1277;25329;-71
2022/08/31 03:06:18;;;;;;;2.90;2.00;;;;;;;13.92;83.98;98758.65;105807;1277;24272;-71
2022/08/31 03:08:47;;;;;;;2.90;2.40;;;;;;;13.91;83.97;98758.14;105910;1277;25239;-71
2022/08/31 03:11:15;;;;;;;3.70;2.30;;;;;;;13.87;84.17;98759.08;105606;1277;26588;-71
2022/08/31 03:13:43;;;;;;;4.00;2.60;;;;;;;13.84;84.22;98760.36;105686;1277;22563;-71
2022/08/31 03:16:13;;;;;;;2.90;2.40;;;;;;;13.82;84.15;98762.15;105873;1277;25737;-71
2022/08/31 03:18:42;;;;;;;2.20;1.90;;;;;;;13.80;84.31;98758.30;105848;1277;22543;-71
2022/08/31 03:21:09;;;;;;;4.20;2.50;;;;;;;13.79;84.35;98762.47;105813;1277;22547;-71
2022/08/31 03:23:37;;;;;;;3.00;2.80;;;;;;;13.78;84.40;98761.46;105886;1277;25289;-71
2022/08/31 03:26:04;;;;;;;4.10;1.80;;;;;;;13.78;84.27;98762.56;105834;1277;25228;-71
2022/08/31 03:28:34;;;;;;;4.40;2.00;;;;;;;13.78;84.59;98765.95;105620;1277;23429;-71
2022/08/31 03:31:24;;;;;;;3.40;1.90;;;;;;;13.78;84.69;98768.09;105608;1277;24380;-71
2022/08/31 03:33:51;;;;;;;3.00;2.20;;;;;;;13.79;84.75;98765.41;105656;1277;24418;-71
2022/08/31 03:36:18;;;;;;;3.90;2.30;;;;;;;13.79;84.79;98768.44;105903;1277;25419;-71
2022/08/31 03:38:45;;;;;;;3.80;2.30;;;;;;;13.80;84.77;98761.97;105793;1277;22551;-71
2022/08/31 03:41:19;;;;;;;4.40;2.50;;;;;;;13.80;84.81;98764.61;105782;1277;23916;-71
2022/08/31 03:43:50;;;;;;;2.20;1.90;;;;;;;13.80;84.90;98760.83;105856;1277;22720;-71
2022/08/31 03:46:17;;;;;;;7.50;2.30;;;;;;;13.79;84.65;98760.00;105792;1277;24262;-71
2022/08/31 03:48:48;;;;;;;2.70;2.20;;;;;;;13.79;84.74;98755.71;105608;1277;22554;-71
2022/08/31 03:51:16;;;;;;;2.60;2.30;;;;;;;13.79;84.60;98760.10;105795;1277;25363;-71
2022/08/31 03:53:46;;;;;;;3.40;2.20;;;;;;;13.78;84.63;98759.11;105598;1277;22688;-71
2022/08/31 03:56:17;;;;;;;3.30;2.50;;;;;;;13.77;84.54;98759.42;105903;1277;25469;-70
2022/08/31 03:58:45;;;;;;;3.40;2.70;;;;;;;13.77;84.62;98759.05;105882;1277;22544;-71
2022/08/31 04:01:22;;;;;;;3.60;3.00;;;;;;;13.75;84.70;98757.89;105895;1277;24312;-70
2022/08/31 04:04:11;;;;;;;4.00;3.50;;;;;;;13.74;84.91;98755.67;105355;1277;25332;-70
2022/08/31 04:07:02;;;;;;;6.00;3.50;;;;;;;13.73;84.93;98759.01;105584;1277;22579;-70
2022/08/31 04:09:49;;;;;;;4.60;3.10;;;;;;;13.72;84.85;98758.99;105291;1277;22842;-70
2022/08/31 04:12:55;;;;;;;5.50;2.60;;;;;;;13.67;84.98;98759.70;105335;1282;22660;-71
2022/08/31 04:15:45;;;;;;;3.40;2.30;;;;;;;13.62;85.23;98760.49;105116;1281;26713;-71
2022/08/31 04:18:31;;;;;;;4.50;3.10;;;;;;;13.57;85.50;98759.98;105391;1280;22551;-71
2022/08/31 04:20:58;;;;;;;5.50;2.90;;;;;;;13.54;85.62;98758.76;105399;1280;24258;-71
2022/08/31 04:23:28;;;;;;;3.90;2.90;;;;;;;13.54;85.84;98756.34;105332;1280;24368;-71
2022/08/31 04:25:58;;;;;;;4.20;2.70;;;;;;;13.57;86.01;98760.14;105358;1283;23544;-71
2022/08/31 04:28:26;;;;;;;4.10;2.80;;;;;;;13.60;86.15;98759.27;105357;1283;24431;-70
2022/08/31 04:30:52;;;;;;;7.50;3.20;;;;;;;13.62;86.18;98766.39;105350;1283;22550;-71
2022/08/31 04:33:20;;;;;;;4.90;3.30;;;;;;;13.65;86.28;98767.35;105340;1282;22600;-71
2022/08/31 04:35:48;;;;;;;4.60;3.50;;;;;;;13.68;86.47;98770.08;105409;1280;24299;-71
2022/08/31 04:38:15;;;;;;;4.60;3.50;;;;;;;13.71;86.32;98776.73;105425;1280;22535;-71
2022/08/31 04:40:45;;;;;;;6.20;3.60;;;;;;;13.74;86.49;98778.63;105470;1280;24272;-71
2022/08/31 04:43:12;;;;;;;5.20;3.70;;;;;;;13.76;86.58;98780.83;105431;1277;22547;-71
2022/08/31 04:45:41;;;;;;;4.80;3.30;;;;;;;13.78;86.75;98779.54;105918;1274;25255;-71
2022/08/31 04:48:09;;;;;;;4.00;3.20;;;;;;;13.82;86.68;98783.73;105920;1277;22705;-71
2022/08/31 04:50:37;;;;;;;4.20;3.20;;;;;;;13.84;86.74;98782.83;105823;1277;27521;-71
2022/08/31 04:53:09;;;;;;;7.90;3.10;;;;;;;13.87;86.67;98783.73;105886;1277;22701;-70
2022/08/31 04:55:42;;;;;;;4.60;2.80;;;;;;;13.91;86.81;98785.80;105635;1277;22541;-70
2022/08/31 04:58:12;;;;;;;5.40;3.00;;;;;;;13.95;86.68;98784.90;105973;1274;25345;-70
2022/08/31 05:00:42;;;;;;;3.70;2.70;;;;;;;13.99;86.73;98783.13;105956;1274;22528;-70
2022/08/31 05:03:29;;;;;;;3.80;2.90;;;;;;;14.03;86.64;98783.11;105951;1274;22679;-70
2022/08/31 05:05:56;;;;;;;6.70;3.00;;;;;;;14.06;86.71;98789.88;106035;1274;25433;-70
2022/08/31 05:08:24;;;;;;;3.00;2.60;;;;;;;14.10;86.71;98791.56;105847;1275;22652;-70
2022/08/31 05:10:51;;;;;;;5.90;2.90;;;;;;;14.14;86.84;98790.84;105915;1274;24272;-70
2022/08/31 05:13:19;;;;;;;5.50;3.00;;;;;;;14.18;86.74;98793.39;105890;1274;22623;-70
2022/08/31 05:15:47;;;;;;;4.30;2.60;;;;;;;14.22;86.77;98792.04;105852;1274;22551;-70
2022/08/31 05:18:19;;;;;;;7.40;3.00;;;;;;;14.26;86.78;98793.99;105804;1274;22547;-70
2022/08/31 05:20:52;;;;;;;4.70;2.50;;;;;;;14.30;86.62;98798.30;105871;1275;23104;-70
2022/08/31 05:23:19;;;;;;;9.90;3.00;;;;;;;14.32;86.65;98799.70;105971;1274;24274;-70
2022/08/31 05:25:49;;;;;;;4.70;2.40;;;;;;;14.36;86.72;98801.92;105812;1274;25296;-70
2022/08/31 05:28:22;;;;;;;7.20;2.80;;;;;;;14.41;86.60;98803.06;105889;1277;22545;-70
2022/08/31 05:30:49;;;;;;;5.20;3.10;;;;;;;14.46;86.59;98802.48;105953;1277;24306;-70
2022/08/31 05:33:40;;;;;;;5.10;2.70;;;;;;;14.50;86.53;98802.85;105803;1277;22559;-70
2022/08/31 05:36:07;;;;;;;3.40;2.50;;;;;;;14.54;86.51;98804.64;105919;1277;25368;-70
2022/08/31 05:38:35;;;;;;;4.20;2.90;;;;;;;14.59;86.47;98805.80;105937;1274;25385;-70
2022/08/31 05:41:04;;;;;;;6.80;2.80;;;;;;;14.64;86.37;98808.92;106005;1274;25307;-72
2022/08/31 05:43:32;;;;;;;3.70;2.70;;;;;;;14.71;86.66;98810.11;105994;1274;22567;-70
2022/08/31 05:46:00;;;;;;;4.30;3.00;;;;;;;14.79;86.50;98811.09;105882;1274;22704;-70
2022/08/31 05:48:32;;;;;;;3.30;2.50;;;;;;;14.86;86.53;98810.27;105959;1277;22906;-70
2022/08/31 05:51:02;;;;;;;6.70;2.60;;;;;;;14.93;86.49;98814.44;105934;1277;22857;-70
2022/08/31 05:53:36;;;;;;;5.00;2.60;;;;;;;14.99;86.38;98814.41;105949;1277;25422;-70
2022/08/31 05:56:09;;;;;;;7.50;2.70;;;;;;;15.06;86.24;98814.39;105818;1274;22528;-70
2022/08/31 05:58:38;;;;;;;9.30;2.80;;;;;;;15.12;86.09;98817.11;106226;1274;22573;-71
2022/08/31 06:01:20;;;;;;;5.50;2.30;;;;;;;15.17;85.70;98816.77;106035;1274;23590;-71
2022/08/31 06:04:01;;;;;;;3.70;2.20;;;;;;;15.23;85.25;98816.35;105946;1274;24422;-71
2022/08/31 06:06:28;;;;;;;4.10;2.50;;;;;;;15.26;85.17;98815.98;105937;1274;22553;-71
2022/08/31 06:08:59;;;;;;;8.50;3.00;;;;;;;15.31;85.09;98818.73;105977;1274;24954;-71
2022/08/31 06:11:29;;;;;;;3.40;2.90;;;;;;;15.38;84.77;98821.96;106201;1273;24303;-71
2022/08/31 06:13:59;;;;;;;4.10;2.70;;;;;;;15.44;84.74;98824.95;106007;1277;24286;-70
2022/08/31 06:16:29;;;;;;;4.70;2.70;;;;;;;15.49;84.47;98824.05;105822;1274;23283;-71
2022/08/31 06:18:59;;;;;;;3.50;2.30;;;;;;;15.52;83.93;98831.52;106145;1274;22553;-71
2022/08/31 06:21:29;;;;;;;4.60;2.40;;;;;;;15.56;83.70;98836.26;106024;1274;23948;-71
2022/08/31 06:23:58;;;;;;;3.70;2.10;;;;;;;15.57;83.55;98834.55;106009;1274;22710;-71
2022/08/31 06:26:29;;;;;;;4.60;2.30;;;;;;;15.57;83.53;98843.17;105973;1274;24143;-72
2022/08/31 06:28:59;;;;;;;3.30;2.40;;;;;;;15.60;83.56;98848.40;105935;1277;30861;-71
2022/08/31 06:31:34;;;;;;;4.60;2.30;;;;;;;15.64;83.47;98848.42;105574;1277;22719;-71
2022/08/31 06:34:03;;;;;;;5.30;3.00;;;;;;;15.69;83.57;98851.13;105598;1277;22545;-71
2022/08/31 06:37:03;;;;;;;4.20;2.40;;;;;;;15.75;83.31;98854.67;105633;1275;22554;-70
2022/08/31 06:40:07;;;;;;;4.40;2.80;;;;;;;15.81;83.26;98854.56;105679;1274;22594;-70
2022/08/31 06:42:57;;;;;;;4.30;2.60;;;;;;;15.88;83.46;98850.06;105868;1274;22611;-70
2022/08/31 06:45:50;;;;;;;5.20;2.50;;;;;;;15.95;83.40;98853.34;105886;1274;22682;-70
2022/08/31 06:48:33;;;;;;;7.50;2.70;;;;;;;16.01;82.87;98852.35;105931;1274;23012;-70
2022/08/31 06:51:03;;;;;;;5.20;2.90;;;;;;;16.06;82.69;98848.09;104881;1274;1419136;-70
2022/08/31 06:53:30;;;;;;;5.50;2.90;;;;;;;16.15;82.65;98853.38;105855;1274;24305;-70
2022/08/31 06:56:15;;;;;;;4.60;2.60;;;;;;;16.26;82.81;98858.17;105854;1274;22604;-70
2022/08/31 06:59:02;;;;;;;6.60;2.80;;;;;;;16.35;82.57;98863.36;105931;1274;24491;-70
2022/08/31 07:02:01;;;;;;;5.90;2.50;;;;;;;16.46;82.20;98861.89;105769;1274;24181;-70
2022/08/31 07:04:34;;;;;;;3.50;2.20;;;;;;;16.52;81.67;98862.44;105805;1274;22543;-70
2022/08/31 07:07:02;;;;;;;5.00;2.60;;;;;;;16.60;81.58;98866.90;105898;1274;25329;-70
2022/08/31 07:09:29;;;;;;;4.10;2.50;;;;;;;16.69;81.94;98872.45;105528;1277;23969;-70
2022/08/31 07:11:56;;;;;;;5.00;2.90;;;;;;;16.79;81.26;98871.67;105806;1276;22560;-70
2022/08/31 07:14:26;;;;;;;4.80;2.20;;;;;;;16.89;81.02;98874.30;105831;1276;22594;-70
2022/08/31 07:16:56;;;;;;;4.30;2.50;;;;;;;17.01;81.15;98871.20;105892;1277;22521;-70
2022/08/31 07:19:25;;;;;;;4.20;2.50;;;;;;;17.12;80.32;98870.85;105845;1274;25226;-70
2022/08/31 07:21:59;;;;;;;4.70;2.70;;;;;;;17.20;80.14;98867.75;105948;1274;22640;-70
2022/08/31 07:24:31;;;;;;;6.10;3.70;;;;;;;17.27;79.57;98866.36;105949;1274;22550;-70
2022/08/31 07:27:08;;;;;;;7.20;2.70;;;;;;;17.35;79.49;98866.07;105944;1274;25296;-70
2022/08/31 07:29:43;;;;;;;5.70;3.10;;;;;;;17.47;79.29;98864.38;105880;1274;24093;-70
2022/08/31 07:32:14;;;;;;;4.60;3.10;;;;;;;17.58;79.03;98862.85;105905;1274;25242;-70
2022/08/31 07:34:42;;;;;;;4.70;3.10;;;;;;;17.65;78.71;98866.52;105915;1274;22537;-70
2022/08/31 07:43:03;;;;;;;3.40;2.60;;;;;;;17.85;77.83;98864.46;105881;1274;23166;-70
2022/08/31 07:45:32;;;;;;;3.90;2.70;;;;;;;17.91;77.72;98869.57;105979;1274;22563;-71
2022/08/31 07:47:59;;;;;;;10.10;3.20;;;;;;;17.97;77.46;98868.23;106067;1274;22952;-71
2022/08/31 07:50:43;;;;;;;5.00;2.60;;;;;;;18.05;77.19;98863.78;105978;1274;31026;-70
2022/08/31 07:53:40;;;;;;;5.30;2.30;;;;;;;18.12;76.81;98861.91;105632;1277;22554;-71
2022/08/31 07:56:30;;;;;;;4.80;2.90;;;;;;;18.22;76.31;98862.85;105868;1274;22551;-71
2022/08/31 07:59:13;;;;;;;5.20;2.70;;;;;;;18.30;76.09;98868.86;105999;1274;25290;-71
2022/08/31 08:01:41;;;;;;;4.70;2.70;;;;;;;18.43;75.62;98867.73;105930;1274;25455;-71
2022/08/31 08:04:20;;;;;;;2.60;2.30;;;;;;;18.54;75.03;98866.37;106124;1274;25394;-71
2022/08/31 08:07:06;;;;;;;3.80;2.50;;;;;;;18.71;74.05;98861.42;105922;1274;24322;-70
2022/08/31 08:09:54;;;;;;;3.10;2.70;;;;;;;18.87;74.12;98865.41;106101;1274;24701;-70
2022/08/31 08:12:41;;;;;;;5.40;2.20;;;;;;;19.03;73.44;98866.42;105885;1274;22538;-70
2022/08/31 08:15:15;;;;;;;3.10;2.80;;;;;;;19.32;73.21;98863.64;105844;1274;22554;-69
2022/08/31 08:18:05;;;;;;;4.80;2.90;;;;;;;19.75;72.28;98858.77;105606;1274;22562;-69
2022/08/31 08:20:39;;;;;;;2.50;2.30;;;;;;;20.03;71.55;98860.77;105928;1274;24103;-69
2022/08/31 08:23:13;;;;;;;2.60;2.30;;;;;;;20.27;70.46;98863.30;105949;1274;25468;-69
2022/08/31 08:26:11;;;;;;;6.70;2.70;;;;;;;20.43;69.62;98867.66;105539;1274;22553;-70
2022/08/31 08:29:10;;;;;;;2.70;2.10;;;;;;;20.58;68.71;98870.54;105689;1274;24255;-70
2022/08/31 08:31:42;;;;;;;3.50;2.10;;;;;;;20.62;68.12;98869.99;105832;1274;29743;-70
2022/08/31 08:34:09;;;;;;;5.30;2.50;;;;;;;20.67;67.61;98871.41;105911;1274;22547;-70
2022/08/31 08:36:39;;;;;;;4.30;2.30;;;;;;;20.70;67.08;98873.14;105841;1274;24227;-70
2022/08/31 08:39:08;;;;;;;5.50;2.30;;;;;;;20.73;66.91;98863.97;105916;1274;23939;-70
2022/08/31 08:41:40;;;;;;;4.30;2.00;;;;;;;20.77;66.64;98864.23;105840;1274;22573;-72
2022/08/31 08:44:11;;;;;;;2.80;2.20;;;;;;;20.80;65.75;98864.77;106081;1274;22868;-70
2022/08/31 08:46:38;;;;;;;3.20;2.10;;;;;;;20.80;65.68;98867.98;106181;1273;25296;-69
2022/08/31 08:49:15;;;;;;;3.80;1.90;;;;;;;20.84;65.65;98866.91;106276;1274;22536;-69
2022/08/31 08:51:45;;;;;;;2.40;1.60;;;;;;;20.89;65.23;98867.95;105892;1274;25362;-69
2022/08/31 08:54:19;;;;;;;3.50;1.70;;;;;;;20.92;64.80;98871.95;105899;1274;24248;-69
2022/08/31 08:56:47;;;;;;;2.80;2.10;;;;;;;20.96;64.88;98875.36;105848;1274;24278;-69
2022/08/31 08:59:18;;;;;;;2.30;1.80;;;;;;;21.06;64.68;98867.32;105862;1274;22719;-68
2022/08/31 09:01:49;;;;;;;5.10;1.90;;;;;;;21.09;64.30;98866.61;105893;1274;22703;-70
2022/08/31 09:04:33;;;;;;;2.90;1.60;;;;;;;21.09;64.33;98872.85;106092;1274;22534;-70
2022/08/31 09:07:29;;;;;;;4.20;1.80;;;;;;;21.15;63.91;98867.70;105952;1274;23986;-70
2022/08/31 09:10:17;;;;;;;3.50;1.80;;;;;;;21.20;63.63;98866.33;105831;1274;22773;-71
2022/08/31 09:13:08;;;;;;;3.50;1.80;;;;;;;21.21;62.66;98862.89;105786;1275;30870;-70
2022/08/31 09:15:51;;;;;;;3.20;2.00;;;;;;;21.02;62.04;98858.92;105827;1274;22534;-70
2022/08/31 09:18:48;;;;;;;3.50;1.70;;;;;;;20.94;63.60;98857.84;105866;1274;24406;-70
2022/08/31 09:21:26;;;;;;;3.90;1.80;;;;;;;20.95;63.84;98858.44;105864;1275;22544;-71
2022/08/31 09:24:03;;;;;;;4.50;2.40;;;;;;;20.96;63.80;98857.38;106041;1274;23811;-70
2022/08/31 09:27:16;;;;;;;3.40;2.00;;;;;;;20.96;64.11;98848.99;105856;1274;22534;-70
2022/08/31 09:29:54;;;;;;;3.00;1.70;;;;;;;21.00;64.17;98847.38;105892;1277;22676;-70
2022/08/31 09:32:30;;;;;;;4.80;1.70;;;;;;;21.02;64.07;98848.08;105840;1274;25490;-70
2022/08/31 09:35:07;;;;;;;3.10;1.50;;;;;;;21.00;63.56;98848.58;105798;1276;22528;-71
2022/08/31 09:37:45;;;;;;;3.20;1.70;;;;;;;20.94;62.89;98844.27;105846;1277;24038;-70
2022/08/31 09:40:26;;;;;;;2.60;1.40;;;;;;;20.86;63.24;98844.95;105869;1277;24309;-70
2022/08/31 09:43:07;;;;;;;1.60;1.30;;;;;;;20.86;63.78;98842.96;105861;1274;22629;-70
2022/08/31 09:45:36;;;;;;;1.90;1.40;;;;;;;20.82;62.88;98844.75;105822;1274;24277;-70
2022/08/31 09:48:06;;;;;;;2.90;1.80;;;;;;;20.78;63.24;98848.10;105938;1274;24370;-70
2022/08/31 09:50:35;;;;;;;4.90;1.70;;;;;;;20.75;62.53;98845.16;105848;1274;22535;-70
2022/08/31 09:56:12;;;;;;;2.10;1.20;;;;;;;20.73;62.84;98839.33;105885;1274;24224;-70
2022/08/31 09:58:47;;;;;;;3.80;1.10;;;;;;;20.75;62.55;98842.11;105908;1274;24402;-70
2022/08/31 10:01:43;;;;;;;2.00;1.40;;;;;;;20.74;62.32;98840.19;106049;1274;25236;-70
2022/08/31 10:04:15;;;;;;;2.60;1.50;;;;;;;20.74;62.07;98838.47;105883;1274;29714;-70
2022/08/31 10:06:54;;;;;;;6.70;2.00;;;;;;;20.75;62.17;98836.13;105982;1274;25242;-70
2022/08/31 10:09:35;;;;;;;3.20;1.80;;;;;;;20.74;62.24;98837.54;106084;1274;25238;-69
2022/08/31 10:12:10;;;;;;;2.20;1.40;;;;;;;20.72;62.43;98832.48;105888;1274;25423;-71
2022/08/31 10:14:53;;;;;;;4.50;1.50;;;;;;;20.75;62.50;98830.20;105896;1277;25251;-69
2022/08/31 10:17:31;;;;;;;4.00;1.40;;;;;;;20.79;62.84;98827.88;105862;1277;23922;-70
2022/08/31 10:20:14;;;;;;;2.90;1.30;;;;;;;20.83;62.25;98829.63;105881;1274;25219;-70
2022/08/31 10:22:52;;;;;;;3.90;1.40;;;;;;;20.87;61.38;98836.86;105900;1274;22589;-70
2022/08/31 10:25:41;;;;;;;1.80;0.90;;;;;;;20.95;61.73;98832.35;105877;1274;24251;-69
2022/08/31 10:28:30;;;;;;;5.60;1.40;;;;;;;21.07;61.51;98836.73;106066;1274;22655;-70
2022/08/31 10:31:01;;;;;;;1.50;1.10;;;;;;;21.16;60.84;98832.85;105928;1274;24312;-70
2022/08/31 10:36:35;;;;;;;2.10;1.10;;;;;;;21.35;60.26;98835.04;105945;1274;25241;-70
2022/08/31 10:39:10;;;;;;;5.10;1.60;;;;;;;21.50;60.17;98836.70;105880;1274;22867;-71
2022/08/31 10:41:43;;;;;;;2.90;1.40;;;;;;;21.72;59.26;98827.05;105815;1275;25250;-70
2022/08/31 10:44:41;;;;;;;3.50;1.20;;;;;;;21.73;57.77;98822.14;105995;1274;24218;-70
2022/08/31 10:47:08;;;;;;;2.20;1.20;;;;;;;21.73;56.98;98817.28;106031;1274;24421;-70
2022/08/31 10:49:38;;;;;;;2.30;1.20;;;;;;;21.66;57.44;98820.64;106117;1274;22676;-70
2022/08/31 10:52:31;;;;;;;6.00;1.20;;;;;;;21.62;57.75;98819.78;105970;1274;25820;-70
2022/08/31 10:55:13;;;;;;;1.90;1.10;;;;;;;21.56;57.56;98822.94;105840;1274;24083;-70
2022/08/31 10:57:54;;;;;;;2.20;1.10;;;;;;;21.55;57.99;98820.60;105895;1274;25340;-70
2022/08/31 11:00:40;;;;;;;1.80;1.40;;;;;;;21.53;58.57;98822.73;105674;1277;23698;-69
2022/08/31 11:03:28;;;;;;;3.10;1.00;;;;;;;21.66;58.48;98818.42;105800;1274;24264;-70
2022/08/31 11:06:13;;;;;;;4.70;1.20;;;;;;;21.85;58.33;98814.69;105909;1274;24279;-70
2022/08/31 11:09:01;;;;;;;1.60;1.10;;;;;;;22.07;57.89;98814.20;106038;1274;22550;-71
2022/08/31 11:11:46;;;;;;;1.10;1.00;;;;;;;22.26;57.08;98808.98;105961;1274;25238;-70
2022/08/31 11:14:43;;;;;;;1.40;0.90;;;;;;;22.44;56.31;98805.65;105904;1274;25188;-71
2022/08/31 11:17:48;;;;;;;4.10;1.00;;;;;;;22.54;54.08;98802.45;105934;1274;22594;-70
2022/08/31 11:20:50;;;;;;;5.20;1.20;;;;;;;22.54;54.41;98800.40;105906;1274;26097;-71
2022/08/31 11:24:10;;;;;;;4.20;1.60;;;;;;;22.50;53.85;98800.60;105935;1274;25232;-70
2022/08/31 11:27:12;;;;;;;3.50;1.30;;;;;;;22.45;53.76;98794.52;105955;1274;30527;-71
2022/08/31 11:29:55;;;;;;;1.70;1.10;;;;;;;22.47;54.17;98795.75;105937;1274;24316;-71
2022/08/31 11:32:33;;;;;;;4.10;0.80;;;;;;;22.55;54.18;98794.39;105933;1274;24444;-70
2022/08/31 11:35:07;;;;;;;2.20;0.80;;;;;;;22.75;53.33;98791.20;106038;1274;23294;-70
2022/08/31 11:37:54;;;;;;;1.70;0.90;;;;;;;22.90;52.87;98790.69;105991;1274;24224;-70
2022/08/31 11:40:40;;;;;;;4.00;0.90;;;;;;;22.93;52.15;98790.30;105871;1274;22548;-70
2022/08/31 11:43:30;;;;;;;1.50;0.90;;;;;;;23.10;52.08;98783.36;105911;1274;26568;-70
2022/08/31 11:46:16;;;;;;;1.60;0.90;;;;;;;23.26;51.28;98779.91;105893;1274;24321;-69
2022/08/31 11:48:50;;;;;;;2.50;1.00;;;;;;;23.25;50.84;98776.27;105968;1274;25348;-69
2022/08/31 11:51:44;;;;;;;0.80;0.80;;;;;;;23.19;50.63;98776.50;105901;1274;23928;-69
2022/08/31 11:54:25;;;;;;;2.00;0.90;;;;;;;23.18;49.76;98781.31;105929;1274;24302;-69
2022/08/31 11:56:55;;;;;;;3.40;1.00;;;;;;;23.14;50.12;98775.18;105870;1274;22590;-70
2022/08/31 11:59:24;;;;;;;2.80;1.10;;;;;;;23.32;50.29;98770.55;106046;1274;26121;-69
2022/08/31 12:01:57;;;;;;;3.70;1.10;;;;;;;23.53;51.09;98764.58;105946;1274;22553;-69
2022/08/31 12:09:08;;;;;;;6.00;1.20;;;;;;;23.82;48.76;98766.33;106682;1274;34119;-69
2022/08/31 12:27:29;;;;;;;2.70;0.80;;;;;;;23.80;46.69;98746.63;103615;1312;545654;-68
2022/08/31 12:30:17;;;;;;;1.90;0.80;;;;;;;23.72;46.40;98745.47;108404;1287;23055;-69
2022/08/31 12:32:52;;;;;;;1.90;0.80;;;;;;;23.55;45.10;98749.61;108455;1286;22406;-69
2022/08/31 12:38:17;;;;;;;2.60;0.80;;;;;;;23.48;46.49;98746.26;105042;1280;22569;-69
2022/08/31 12:40:48;;;;;;;1.80;0.70;;;;;;;23.51;46.06;98741.77;103576;1289;1369569;-69